Latest Weather Observations for Cairns Racecourse

IDQ60801

Issued at 4:12 am EST Sunday 16 December 2018 (issued every 10 minutes, with the page automatically refreshed every 10 minutes)

About weather observations | Map of weather stations | Latest weather observations for QLD | Other Formats
Station Details ID: 031222 Name: CAIRNS RACECOURSE Lat: -16.95 Lon: 145.75 Height: 4.1 m
Data from the previous 72 hours. | See also: Recent months at Cairns Racecourse
Date/Time
EST
Temp
°C
App
Temp
°C
Dew
Point
°C
Rel
Hum
%
Delta-T
°C
Wind Press
QNH
hPa
Press
MSL
hPa
Rain since
9am
mm
Dir  Spd
km/h
Gust
km/h
Spd
kts
Gust
kts
16/04:00am 27.4 29.1 22.4 74 3.4 W 17 30 9 16 - - 81.8
16/03:30am 27.2 30.5 22.6 76 3.1 W 9 17 5 9 - - 81.8
16/03:00am 26.3 30.6 23.6 85 1.8 E 7 11 4 6 - - 81.8
16/02:30am 27.2 31.1 22.6 76 3.1 NNW 6 11 3 6 - - 81.8
16/02:00am 27.9 29.2 22.6 73 3.6 W 20 33 11 18 - - 81.8
16/01:30am 26.7 31.5 24.2 86 1.7 NW 6 19 3 10 - - 81.8
16/01:00am 26.8 33.5 25.4 92 1.0 CALM 0 0 0 0 - - 81.8
16/12:30am 26.9 33.6 26.0 95 0.6 NNE 2 6 1 3 - - 81.8
16/12:00am 27.0 33.8 26.1 95 0.6 NW 2 7 1 4 - - 81.8
 
Date/Time
EST
Temp
°C
App
Temp
°C
Dew
Point
°C
Rel
Hum
%
Delta-T
°C
Wind Press
QNH
hPa
Press
MSL
hPa
Rain since
9am
mm
Dir  Spd
km/h
Gust
km/h
Spd
kts
Gust
kts
15/11:30pm 27.3 34.7 26.4 95 0.6 CALM 0 6 0 3 - - 81.8
15/11:00pm 27.2 33.2 26.3 95 0.6 NNW 7 13 4 7 - - 81.8
15/10:49pm 27.2 33.2 26.3 95 0.6 NW 7 11 4 6 - - 81.8
15/10:30pm 27.3 33.3 26.4 95 0.6 NNW 7 15 4 8 - - 81.8
15/10:00pm 27.2 33.2 26.3 95 0.6 NNW 7 15 4 8 - - 81.8
15/09:30pm 27.0 32.1 25.6 92 1.0 NW 9 15 5 8 - - 81.8
15/09:24pm 27.1 32.4 25.9 93 0.8 NNW 9 15 5 8 - - 81.8
15/09:07pm 27.4 32.7 26.5 95 0.6 NNW 11 17 6 9 - - 81.6
15/09:06pm 27.4 32.7 26.5 95 0.6 NNW 11 17 6 9 - - 81.4
15/09:00pm 27.5 33.7 26.6 95 0.6 NNW 7 17 4 9 - - 81.0
15/08:51pm 27.5 32.8 26.4 94 0.8 NNW 11 24 6 13 - - 80.8
15/08:30pm 27.3 33.3 26.4 95 0.6 NNW 7 19 4 10 - - 80.0
15/08:26pm 27.2 32.8 26.3 95 0.6 NNW 9 19 5 10 - - 80.0
15/08:00pm 27.2 32.4 26.3 95 0.6 NNW 11 20 6 11 - - 77.2
15/07:30pm 27.1 32.5 26.6 97 0.4 NW 11 22 6 12 - - 71.8
15/07:00pm 26.9 31.5 26.0 95 0.6 NNW 13 20 7 11 - - 65.2
15/06:30pm 27.2 31.7 25.8 92 1.0 NNW 13 30 7 16 - - 50.6
15/06:26pm 27.3 32.4 26.1 93 0.8 NNW 11 19 6 10 - - 49.0
15/06:24pm 27.4 32.5 26.2 93 0.9 NNW 11 19 6 10 - - 48.6
15/06:03pm 27.5 32.2 26.1 92 1.0 NNE 13 22 7 12 - - 48.0
15/06:00pm 27.6 32.4 26.2 92 1.0 NNE 13 22 7 12 - - 47.6
15/05:45pm 27.6 32.6 26.0 91 1.1 NNE 11 24 6 13 - - 47.2
15/05:30pm 27.4 32.7 25.8 91 1.1 NNE 9 26 5 14 - - 47.2
15/05:16pm 27.6 33.1 26.2 92 1.0 NNE 9 17 5 9 - - 45.2
15/05:00pm 27.4 33.0 25.8 91 1.1 NNW 7 13 4 7 - - 44.2
15/04:51pm 27.4 32.1 25.6 90 1.3 NNW 11 20 6 11 - - 44.2
15/04:48pm 27.4 32.1 25.6 90 1.3 N 11 24 6 13 - - 44.2
15/04:44pm 27.5 32.3 25.7 90 1.3 N 11 24 6 13 - - 44.2
15/04:30pm 27.6 32.2 26.0 91 1.1 NNE 13 26 7 14 - - 44.2
15/04:24pm 27.8 32.8 26.0 90 1.3 NNE 11 26 6 14 - - 43.6
15/04:21pm 28.1 33.3 26.3 90 1.3 NNE 11 20 6 11 - - 42.6
15/04:05pm 28.0 33.0 26.6 92 1.0 NNE 13 26 7 14 - - 42.6
15/04:00pm 27.9 32.7 26.3 91 1.1 NNE 13 24 7 13 - - 42.6
15/03:49pm 27.6 31.6 26.2 92 1.0 NNE 17 52 9 28 - - 42.6
15/03:48pm 27.6 31.2 26.2 92 1.0 NNE 19 52 10 28 - - 42.6
15/03:30pm 27.4 31.6 26.0 92 1.0 NE 15 24 8 13 - - 42.2
15/03:00pm 27.0 32.1 25.6 92 1.0 N 9 19 5 10 - - 41.8
15/02:56pm 27.0 31.7 25.6 92 1.0 N 11 28 6 15 - - 41.6
15/02:30pm 27.0 30.7 25.2 90 1.3 NE 15 35 8 19 - - 40.2
15/02:20pm 27.6 32.2 25.4 88 1.5 NNE 11 19 6 10 - - 38.6
15/02:00pm 28.0 32.7 25.6 87 1.7 NNE 11 20 6 11 - - 36.8
15/01:30pm 28.2 33.5 25.8 87 1.7 NNE 9 20 5 11 - - 36.8
15/01:02pm 27.9 33.0 26.1 90 1.3 NE 11 20 6 11 - - 36.8
15/01:00pm 27.8 32.8 26.0 90 1.3 NNE 11 20 6 11 - - 36.8
15/12:48pm 27.6 32.3 25.6 89 1.4 N 11 24 6 13 - - 36.8
15/12:30pm 27.9 34.3 26.7 93 0.9 NW 6 9 3 5 - - 36.2
15/12:10pm 27.5 32.8 25.9 91 1.1 N 9 15 5 8 - - 35.8
15/12:09pm 27.4 32.7 25.8 91 1.1 NNW 9 15 5 8 - - 35.8
15/12:00pm 27.4 32.5 25.6 90 1.3 WNW 9 13 5 7 - - 35.6
15/11:57am 27.4 32.7 25.2 88 1.5 WNW 7 11 4 6 - - 35.6
15/11:41am 27.3 32.8 25.3 89 1.4 NW 6 9 3 5 - - 35.6
15/11:30am 26.9 33.3 25.5 92 1.0 NE 2 7 1 4 - - 35.6
15/11:29am 26.8 32.7 25.4 92 1.0 NE 4 7 2 4 - - 35.6
15/11:08am 26.1 32.2 25.1 94 0.7 N 2 7 1 4 - - 35.0
15/11:00am 26.3 32.2 25.4 95 0.6 NW 4 9 2 5 - - 33.6
15/10:58am 26.2 31.7 25.3 95 0.6 NW 6 9 3 5 - - 33.4
15/10:30am 26.0 31.1 24.6 92 1.0 NE 6 15 3 8 - - 25.2
15/10:03am 27.1 32.3 25.1 89 1.4 SE 7 15 4 8 - - 1.6
15/10:00am 27.4 32.8 25.2 88 1.5 SE 6 15 3 8 - - 1.6
15/09:54am 27.9 33.7 25.7 88 1.6 SSE 6 9 3 5 - - 1.0
15/09:30am 28.2 33.8 24.8 82 2.4 SSE 4 7 2 4 - - 0.0
15/09:00am 27.7 34.2 25.7 89 1.4 SSW 2 9 1 5 - - 0.4
15/08:30am 26.4 30.5 24.6 90 1.2 E 11 17 6 9 - - 0.2
15/08:00am 27.1 32.2 24.7 87 1.7 S 6 7 3 4 - - 0.0
15/07:30am 26.7 32.8 24.5 88 1.5 CALM 0 0 0 0 - - 0.0
15/07:00am 26.3 31.3 24.5 90 1.2 SSE 6 9 3 5 - - 0.0
15/06:30am 25.8 31.4 24.8 94 0.7 SSE 4 7 2 4 - - 0.0
15/06:00am 25.7 31.1 24.5 93 0.8 SSE 4 7 2 4 - - 0.0
15/05:30am 25.7 30.7 24.5 93 0.8 SSE 6 9 3 5 - - 0.0
15/05:00am 25.7 30.7 24.5 93 0.8 S 6 7 3 4 - - 0.0
15/04:30am 25.9 31.8 24.7 93 0.8 SE 2 6 1 3 - - 0.0
15/04:00am 25.7 31.8 24.5 93 0.8 CALM 0 0 0 0 - - 0.0
15/03:30am 25.8 32.1 24.8 94 0.7 CALM 0 0 0 0 - - 0.0
15/03:00am 26.0 32.5 25.0 94 0.7 CALM 0 0 0 0 - - 0.0
15/02:30am 25.9 32.2 24.7 93 0.8 CALM 0 6 0 3 - - 0.0
15/02:00am 25.8 31.5 24.4 92 1.0 WNW 2 7 1 4 - - 0.0
15/01:30am 25.9 32.0 24.5 92 1.0 CALM 0 0 0 0 - - 0.0
15/01:00am 26.0 31.3 24.4 91 1.1 SSW 4 6 2 3 - - 0.0
15/12:30am 25.9 31.7 24.5 92 1.0 W 2 7 1 4 - - 0.0
15/12:00am 26.1 31.9 24.5 91 1.1 N 2 7 1 4 - - 0.0
 
Date/Time
EST
Temp
°C
App
Temp
°C
Dew
Point
°C
Rel
Hum
%
Delta-T
°C
Wind Press
QNH
hPa
Press
MSL
hPa
Rain since
9am
mm
Dir  Spd
km/h
Gust
km/h
Spd
kts
Gust
kts
14/11:30pm 26.1 31.7 24.3 90 1.2 S 2 9 1 5 - - 0.0
14/11:00pm 26.1 30.4 24.3 90 1.2 SSE 9 13 5 7 - - 0.0
14/10:30pm 26.6 31.8 24.8 90 1.3 SSE 6 7 3 4 - - 0.0
14/10:00pm 26.4 32.6 24.6 90 1.2 CALM 0 6 0 3 - - 0.0
14/09:30pm 26.4 31.5 24.6 90 1.2 SSW 6 7 3 4 - - 0.0
14/09:00pm 26.2 32.3 24.4 90 1.2 CALM 0 0 0 0 - - 0.0
14/08:30pm 26.5 32.3 24.5 89 1.4 SSW 2 7 1 4 - - 0.0
14/08:00pm 26.6 32.6 24.3 87 1.6 CALM 0 0 0 0 - - 0.0
14/07:30pm 27.0 32.8 23.9 83 2.1 CALM 0 0 0 0 - - 0.0
14/07:00pm 27.1 31.7 23.8 82 2.3 NNW 6 9 3 5 - - 0.0
14/06:30pm 27.2 31.5 23.7 81 2.4 NW 7 11 4 6 - - 0.0
14/06:00pm 27.4 31.7 23.6 80 2.6 N 7 13 4 7 - - 0.0
14/05:30pm 27.8 31.7 23.6 78 2.9 NNE 9 17 5 9 - - 0.0
14/05:00pm 28.1 32.3 23.5 76 3.2 NNE 7 15 4 8 - - 0.0
14/04:30pm 28.3 32.1 23.4 75 3.4 NE 9 17 5 9 - - 0.0
14/04:00pm 28.8 32.6 22.8 70 4.1 NNE 7 11 4 6 - - 0.0
14/03:30pm 29.0 32.6 23.0 70 4.1 NNE 9 15 5 8 - - 0.0
14/03:00pm 29.1 32.0 21.8 64 4.9 NNE 9 17 5 9 - - 0.0
14/02:30pm 29.8 32.4 22.0 63 5.3 NNE 11 20 6 11 - - 0.0
14/02:00pm 29.2 31.9 22.9 69 4.3 NNE 13 24 7 13 - - 0.0
14/01:30pm 29.2 32.1 23.2 70 4.1 NNE 13 20 7 11 - - 0.0
14/01:00pm 29.4 32.5 22.9 68 4.4 NNE 11 20 6 11 - - 0.0
14/12:30pm 29.0 32.4 23.4 72 3.8 N 11 19 6 10 - - 0.0
14/12:00pm 27.3 30.4 22.9 77 3.0 NNW 11 20 6 11 - - 0.0
14/11:30am 27.5 30.9 22.7 75 3.3 NNW 9 17 5 9 - - 0.0
14/11:00am 28.1 32.9 23.5 76 3.2 N 4 7 2 4 - - 0.0
14/10:30am 26.2 30.8 21.8 77 2.9 CALM 0 0 0 0 - - 0.0
14/10:00am 25.5 29.3 21.6 79 2.6 S 4 7 2 4 - - 0.0
14/09:30am 25.1 27.8 22.2 84 1.9 SSW 11 15 6 8 - - 0.0
14/09:00am 25.1 28.5 21.6 81 2.3 SE 6 9 3 5 - - 5.6
14/08:30am 24.7 27.8 21.4 82 2.2 W 7 11 4 6 - - 5.4
14/08:00am 24.3 27.9 22.4 89 1.3 WNW 7 11 4 6 - - 5.4
14/07:30am 23.9 28.4 21.6 87 1.5 CALM 0 7 0 4 - - 5.4
14/07:00am 23.6 28.3 22.0 91 1.1 CALM 0 6 0 3 - - 5.4
14/06:30am 23.0 26.4 21.6 92 0.9 NNW 6 9 3 5 - - 5.4
14/06:00am 22.9 26.3 21.7 93 0.8 NNW 6 7 3 4 - - 5.4
14/05:30am 22.9 26.2 21.5 92 0.9 ENE 6 11 3 6 - - 5.4
14/05:00am 22.9 26.1 21.7 93 0.8 S 7 11 4 6 - - 5.2
14/04:30am 23.2 27.3 21.6 91 1.1 E 2 6 1 3 - - 4.6
14/04:00am 23.2 26.7 21.8 92 0.9 NW 6 7 3 4 - - 3.6
14/03:30am 23.2 26.5 21.5 90 1.1 NE 6 9 3 5 - - 2.8
14/03:00am 23.7 26.4 20.6 83 2.0 NW 7 11 4 6 - - 1.0
14/02:30am 25.7 26.6 19.3 67 4.1 ESE 13 19 7 10 - - 0.0
14/02:00am 27.2 26.0 18.5 59 5.6 S 22 39 12 21 - - 0.0
14/01:30am 28.2 26.0 18.6 56 6.2 S 28 50 15 27 - - 0.0
14/01:26am 28.0 27.1 19.0 58 5.8 SSE 22 50 12 27 - - 0.0
14/01:00am 27.0 27.3 20.8 69 4.1 SE 20 37 11 20 - - 0.0
14/12:30am 26.1 27.0 22.0 78 2.7 SE 20 30 11 16 - - 0.0
14/12:00am 25.7 26.1 22.4 82 2.2 SSE 24 35 13 19 - - 0.0
 
Date/Time
EST
Temp
°C
App
Temp
°C
Dew
Point
°C
Rel
Hum
%
Delta-T
°C
Wind Press
QNH
hPa
Press
MSL
hPa
Rain since
9am
mm
Dir  Spd
km/h
Gust
km/h
Spd
kts
Gust
kts
13/11:30pm 25.6 27.0 22.5 83 2.1 SSE 19 33 10 18 - - 0.0
13/11:00pm 26.3 25.8 22.2 78 2.8 SSW 28 39 15 21 - - 0.0
13/10:56pm 26.5 26.6 22.6 79 2.6 SSW 26 39 14 21 - - 0.0
13/10:30pm 28.2 33.2 26.0 88 1.6 SSW 11 13 6 7 - - 0.0
13/10:00pm 29.0 35.3 25.4 81 2.5 NNW 2 7 1 4 - - 0.0
13/09:30pm 29.1 34.4 25.3 80 2.7 N 7 13 4 7 - - 0.0
13/09:00pm 29.0 34.3 25.2 80 2.7 NW 7 15 4 8 - - 0.0
13/08:30pm 29.1 33.9 25.1 79 2.8 NNW 9 17 5 9 - - 0.0
13/08:00pm 29.1 34.2 24.9 78 2.9 NNW 7 13 4 7 - - 0.0
13/07:30pm 29.2 34.3 25.0 78 2.9 NNW 7 13 4 7 - - 0.0
13/07:00pm 29.2 34.3 25.0 78 2.9 NNW 7 13 4 7 - - 0.0
13/06:30pm 29.3 33.9 24.8 77 3.1 NNW 9 15 5 8 - - 0.0
13/06:00pm 29.5 34.1 24.8 76 3.3 NNW 9 20 5 11 - - 0.0
13/05:30pm 29.6 34.4 24.5 74 3.6 N 7 17 4 9 - - 0.0
13/05:00pm 29.9 34.3 24.5 73 3.8 NNE 9 19 5 10 - - 0.0
13/04:30pm 30.2 34.2 24.4 71 4.0 N 11 17 6 9 - - 0.0
13/04:00pm 31.0 35.0 24.4 68 4.6 NNE 11 22 6 12 - - 0.0
13/03:30pm 30.9 35.0 24.5 68 4.5 NNE 11 20 6 11 - - 0.0
13/03:00pm 32.4 36.5 25.2 66 5.1 N 13 20 7 11 - - 0.0
13/02:30pm 31.6 35.4 24.7 67 4.8 NNE 13 22 7 12 - - 0.0
13/02:00pm 31.6 34.9 24.5 66 5.0 NE 15 26 8 14 - - 0.0
13/01:30pm 31.3 34.6 23.9 64 5.1 NE 13 24 7 13 - - 0.0
13/01:00pm 31.8 35.1 23.9 63 5.5 NNE 13 19 7 10 - - 0.0
13/12:30pm 31.4 34.1 23.5 63 5.5 NNE 15 24 8 13 - - 0.0
13/12:00pm 32.0 35.4 24.1 63 5.5 NNE 13 22 7 12 - - 0.0
13/11:30am 32.5 36.7 25.3 66 5.1 NE 13 22 7 12 - - 0.0
13/11:00am 31.6 35.0 24.0 64 5.3 NNE 13 20 7 11 - - 0.0
13/10:30am 32.3 36.3 25.1 65 5.1 NE 13 22 7 12 - - 0.0
13/10:00am 31.5 35.6 23.9 64 5.3 NNE 9 15 5 8 - - 0.0
13/09:30am 30.7 33.9 23.1 64 5.2 ENE 11 17 6 9 - - 0.0
13/09:00am 30.2 34.3 22.9 65 5.0 N 6 9 3 5 - - 0.2
13/08:30am 29.2 33.4 23.4 71 4.0 ENE 7 11 4 6 - - 0.2
13/08:28am 29.7 34.5 24.1 72 3.9 ENE 6 11 3 6 - - 0.2
13/08:05am 29.2 34.5 24.3 75 3.4 ENE 4 11 2 6 - - 0.2
13/08:00am 29.2 34.6 24.5 76 3.3 SE 4 11 2 6 - - 0.2
13/07:30am 28.0 32.8 24.4 81 2.5 SE 7 11 4 6 - - 0.2
13/07:00am 27.4 33.0 23.6 80 2.6 CALM 0 0 0 0 - - 0.2
13/06:30am 25.9 31.4 24.1 90 1.2 SSW 2 6 1 3 - - 0.2
13/06:00am 24.9 30.7 23.9 94 0.7 CALM 0 0 0 0 - - 0.2
13/05:30am 25.0 30.8 24.0 94 0.7 CALM 0 0 0 0 - - 0.2
13/05:00am 25.3 31.5 24.6 96 0.5 CALM 0 0 0 0 - - 0.2
13/04:30am 25.2 31.2 24.3 95 0.6 CALM 0 0 0 0 - - 0.2

Other Formats:

Comma delimited format used in spreadsheet applications
http://www.bom.gov.au/fwo/IDQ60801/IDQ60801.94288.axf

JavaScript Object Notation format (JSON) in row-major order
http://www.bom.gov.au/fwo/IDQ60801/IDQ60801.94288.json